createdAt,value
2018-10-16T00:01:40.588Z,18.77
2018-10-16T00:04:08.950Z,19.90
2018-10-16T00:06:37.287Z,18.98
2018-10-16T00:09:07.317Z,18.92
2018-10-16T00:11:35.621Z,19.02
2018-10-16T00:14:03.926Z,19.57
2018-10-16T00:16:32.214Z,19.25
2018-10-16T00:19:00.552Z,19.90
2018-10-16T00:21:28.855Z,19.20
2018-10-16T00:23:57.100Z,19.30
2018-10-16T00:26:25.449Z,19.52
2018-10-16T00:28:53.769Z,21.85
2018-10-16T00:31:22.078Z,18.73
2018-10-16T00:33:50.391Z,18.35
2018-10-16T00:36:18.699Z,20.77
2018-10-16T00:38:46.929Z,20.70
2018-10-16T00:41:15.348Z,19.02
2018-10-16T00:43:43.650Z,19.00
2018-10-16T00:46:11.927Z,20.90
2018-10-16T00:48:40.271Z,19.70
2018-10-16T00:51:08.579Z,23.83
2018-10-16T00:53:36.864Z,20.62
2018-10-16T00:56:05.407Z,21.87
2018-10-16T00:58:33.738Z,22.20
2018-10-16T01:01:02.057Z,18.50
2018-10-16T01:03:30.305Z,19.23
2018-10-16T01:05:58.624Z,21.15
2018-10-16T01:08:27.216Z,18.75
2018-10-16T01:10:56.569Z,18.77
2018-10-16T01:13:24.881Z,18.73
2018-10-16T01:15:53.272Z,19.62
2018-10-16T01:18:21.595Z,18.52
2018-10-16T01:20:49.861Z,21.75
2018-10-16T01:23:18.106Z,19.50
2018-10-16T01:25:46.407Z,19.40
2018-10-16T01:28:14.795Z,20.60
2018-10-16T01:30:43.108Z,22.55
2018-10-16T01:33:11.403Z,18.95
2018-10-16T01:35:39.738Z,19.85
2018-10-16T01:38:08.038Z,19.00
2018-10-16T01:40:36.337Z,19.23
2018-10-16T01:43:04.677Z,21.00
2018-10-16T01:45:32.967Z,20.68
2018-10-16T01:48:01.347Z,19.67
2018-10-16T01:50:29.638Z,20.17
2018-10-16T01:52:57.917Z,20.77
2018-10-16T01:55:26.290Z,19.20
2018-10-16T01:57:54.593Z,19.30
2018-10-16T02:00:22.877Z,20.00
2018-10-16T02:02:51.307Z,19.12
2018-10-16T02:05:19.577Z,23.25
2018-10-16T02:07:47.894Z,18.80
2018-10-16T02:10:16.235Z,20.23
2018-10-16T02:12:44.543Z,19.85
2018-10-16T02:15:12.860Z,20.20
2018-10-16T02:17:41.157Z,20.85
2018-10-16T02:20:10.046Z,19.45
2018-10-16T02:22:39.193Z,19.07
2018-10-16T02:25:07.949Z,19.17
2018-10-16T02:27:36.216Z,18.85
2018-10-16T02:30:04.926Z,19.65
2018-10-16T02:32:33.182Z,18.48
2018-10-16T02:35:01.446Z,19.33
2018-10-16T02:37:29.759Z,20.15
2018-10-16T02:39:58.117Z,18.35
2018-10-16T02:42:26.426Z,18.25
2018-10-16T02:44:54.702Z,17.62
2018-10-16T02:47:23.017Z,19.40
2018-10-16T02:49:51.280Z,19.70
2018-10-16T02:52:19.694Z,21.07
2018-10-16T02:54:48.051Z,18.52
2018-10-16T02:57:16.429Z,17.42
2018-10-16T02:59:44.741Z,18.75
2018-10-16T03:02:13.039Z,18.52
2018-10-16T03:04:41.503Z,18.52
2018-10-16T03:07:09.799Z,18.50
2018-10-16T03:09:38.065Z,18.80
2018-10-16T03:12:06.457Z,17.97
2018-10-16T03:14:34.726Z,18.42
2018-10-16T03:17:03.054Z,18.70
2018-10-16T03:19:31.383Z,17.75
2018-10-16T03:21:59.666Z,17.90
2018-10-16T03:24:28.005Z,16.75
2018-10-16T03:26:56.286Z,17.07
2018-10-16T03:29:24.594Z,18.57
2018-10-16T03:31:52.882Z,18.25
2018-10-16T03:34:21.191Z,18.17
2018-10-16T03:36:49.508Z,16.87
2018-10-16T03:39:17.832Z,18.27
2018-10-16T03:41:46.120Z,20.40
2018-10-16T03:44:14.647Z,18.87
2018-10-16T03:46:43.009Z,19.60
2018-10-16T03:49:11.812Z,20.10
2018-10-16T03:51:40.908Z,17.87
2018-10-16T03:54:09.824Z,18.65
2018-10-16T03:56:38.143Z,17.80
2018-10-16T03:59:06.541Z,17.05
2018-10-16T04:01:34.832Z,17.80
2018-10-16T04:04:03.192Z,18.17
2018-10-16T04:06:31.544Z,20.62
2018-10-16T04:08:59.848Z,18.25
2018-10-16T04:11:28.287Z,17.95
2018-10-16T04:13:56.588Z,20.77
2018-10-16T04:16:24.973Z,18.05
2018-10-16T04:18:53.209Z,17.80
2018-10-16T04:21:21.428Z,20.77
2018-10-16T04:23:49.798Z,17.30
2018-10-16T04:26:18.035Z,18.03
2018-10-16T04:28:46.276Z,21.68
2018-10-16T04:31:14.620Z,19.20
2018-10-16T04:33:43.151Z,17.25
2018-10-16T04:36:11.392Z,17.15
2018-10-16T04:38:39.637Z,24.30
2018-10-16T04:41:07.853Z,18.48
2018-10-16T04:43:36.128Z,17.67
2018-10-16T04:46:04.426Z,17.70
2018-10-16T04:48:32.635Z,18.70
2018-10-16T04:51:00.869Z,16.80
2018-10-16T04:53:29.177Z,17.75
2018-10-16T04:55:57.422Z,16.23
2018-10-16T04:58:25.945Z,17.12
2018-10-16T05:00:54.241Z,19.23
2018-10-16T05:03:22.488Z,20.32
2018-10-16T05:05:50.707Z,17.48
2018-10-16T05:08:18.965Z,22.25
2018-10-16T05:10:47.286Z,17.50
2018-10-16T05:13:15.687Z,17.80
2018-10-16T05:15:43.902Z,18.15
2018-10-16T05:18:12.487Z,22.60
2018-10-16T05:20:40.817Z,24.57
2018-10-16T05:23:09.107Z,18.07
2018-10-16T05:25:37.364Z,24.72
2018-10-16T05:28:05.656Z,19.85
2018-10-16T05:30:33.946Z,19.50
2018-10-16T05:33:02.364Z,23.83
2018-10-16T05:35:30.646Z,23.07
2018-10-16T05:37:58.952Z,26.83
2018-10-16T05:40:27.338Z,31.25
2018-10-16T05:42:55.682Z,28.20
2018-10-16T05:45:25.100Z,25.32
2018-10-16T05:47:53.398Z,25.73
2018-10-16T05:50:22.273Z,22.17
2018-10-16T05:52:50.562Z,28.13
2018-10-16T05:55:18.936Z,27.42
2018-10-16T05:57:47.216Z,32.58
2018-10-16T06:00:26.965Z,24.52
2018-10-16T06:02:55.196Z,27.30
2018-10-16T06:05:23.502Z,26.30
2018-10-16T06:07:51.816Z,29.67
2018-10-16T06:10:20.110Z,29.65
2018-10-16T06:12:48.402Z,31.77
2018-10-16T06:15:16.605Z,30.37
2018-10-16T06:17:44.916Z,26.42
2018-10-16T06:20:13.555Z,28.50
2018-10-16T06:22:42.550Z,24.77
2018-10-16T06:25:11.136Z,27.35
2018-10-16T06:27:40.619Z,23.47
2018-10-16T06:30:09.315Z,27.87
2018-10-16T06:32:38.286Z,31.93
2018-10-16T06:35:07.258Z,33.37
2018-10-16T06:37:35.510Z,26.82
2018-10-16T06:40:03.906Z,33.65
2018-10-16T06:42:32.140Z,33.78
2018-10-16T06:45:00.332Z,29.25
2018-10-16T06:47:28.655Z,25.95
2018-10-16T06:49:56.915Z,29.42
2018-10-16T06:52:25.141Z,27.95
2018-10-16T06:54:53.403Z,69.87
2018-10-16T06:57:21.679Z,26.60
2018-10-16T06:59:49.962Z,26.50
2018-10-16T07:02:18.209Z,27.77
2018-10-16T07:04:46.580Z,22.60
2018-10-16T07:07:14.936Z,24.90
2018-10-16T07:09:43.053Z,27.25
2018-10-16T07:12:11.303Z,21.00
2018-10-16T07:14:39.602Z,23.18
2018-10-16T07:17:07.815Z,24.73
2018-10-16T07:19:36.134Z,24.50
2018-10-16T07:22:07.484Z,24.70
2018-10-16T07:24:36.329Z,25.82
2018-10-16T07:27:05.122Z,25.25
2018-10-16T07:29:33.464Z,24.10
2018-10-16T07:32:02.932Z,25.82
2018-10-16T07:34:31.395Z,23.15
2018-10-16T07:36:59.893Z,26.25
2018-10-16T07:39:28.358Z,23.70
2018-10-16T07:41:56.871Z,25.95
2018-10-16T07:44:25.171Z,28.17
2018-10-16T07:46:53.450Z,23.92
2018-10-16T07:49:21.877Z,26.90
2018-10-16T07:51:50.173Z,29.00
2018-10-16T07:54:18.478Z,38.70
2018-10-16T07:56:46.990Z,23.38
2018-10-16T07:59:15.296Z,28.02
2018-10-16T08:01:43.513Z,27.70
2018-10-16T08:04:11.844Z,22.70
2018-10-16T08:06:40.108Z,23.32
2018-10-16T08:09:10.586Z,24.00
2018-10-16T08:11:43.092Z,23.73
2018-10-16T08:14:11.465Z,23.35
2018-10-16T08:16:39.688Z,22.13
2018-10-16T08:19:07.960Z,25.62
2018-10-16T08:21:36.210Z,23.95
2018-10-16T08:24:04.609Z,21.55
2018-10-16T08:26:32.887Z,27.65
2018-10-16T08:29:01.163Z,23.05
2018-10-16T08:31:29.601Z,28.05
2018-10-16T08:33:57.884Z,23.35
2018-10-16T08:36:26.318Z,23.90
2018-10-16T08:39:02.234Z,21.45
2018-10-16T08:41:51.820Z,26.77
2018-10-16T08:44:31.715Z,25.68
2018-10-16T08:47:11.612Z,20.77
2018-10-16T08:49:51.443Z,22.95
2018-10-16T08:52:19.634Z,26.52
2018-10-16T08:54:47.970Z,21.90
2018-10-16T08:57:16.291Z,20.15
2018-10-16T08:59:44.621Z,24.82
2018-10-16T09:02:12.925Z,26.05
2018-10-16T09:04:41.205Z,21.07
2018-10-16T09:07:09.444Z,25.25
2018-10-16T09:09:37.720Z,23.35
2018-10-16T09:12:05.973Z,21.82
2018-10-16T09:14:34.241Z,20.75
2018-10-16T09:17:02.504Z,23.30
2018-10-16T09:19:30.763Z,23.43
2018-10-16T09:21:59.209Z,19.33
2018-10-16T09:24:27.539Z,22.73
2018-10-16T09:26:55.786Z,19.00
2018-10-16T09:29:24.069Z,29.05
2018-10-16T09:31:52.285Z,20.90
2018-10-16T09:34:21.602Z,24.52
2018-10-16T09:36:49.935Z,20.45
2018-10-16T09:39:18.205Z,21.40
2018-10-16T09:41:46.497Z,20.20
2018-10-16T09:44:14.773Z,21.52
2018-10-16T09:46:43.143Z,20.32
2018-10-16T09:49:11.388Z,22.50
2018-10-16T09:51:39.594Z,21.62
2018-10-16T09:54:08.021Z,20.08
2018-10-16T09:56:36.628Z,19.40
2018-10-16T09:59:04.936Z,20.08
2018-10-16T10:01:38.562Z,25.48
2018-10-16T10:04:07.128Z,20.85
2018-10-16T10:06:35.361Z,24.02
2018-10-16T10:09:04.735Z,18.50
2018-10-16T10:11:32.973Z,19.57
2018-10-16T10:14:01.185Z,19.75
2018-10-16T10:16:29.498Z,17.55
2018-10-16T10:18:57.702Z,22.35
2018-10-16T10:21:26.226Z,16.57
2018-10-16T10:23:54.457Z,21.73
2018-10-16T10:26:22.881Z,18.55
2018-10-16T10:28:51.128Z,18.30
2018-10-16T10:31:19.393Z,15.70
2018-10-16T10:33:47.609Z,17.20
2018-10-16T10:36:15.971Z,18.77
2018-10-16T10:38:44.285Z,21.93
2018-10-16T10:41:12.579Z,18.40
2018-10-16T10:43:40.801Z,16.95
2018-10-16T10:46:09.014Z,19.45
2018-10-16T10:48:37.944Z,15.75
2018-10-16T10:51:06.536Z,20.30
2018-10-16T10:53:35.142Z,18.98
2018-10-16T10:56:03.392Z,20.63
2018-10-16T10:58:31.688Z,18.20
2018-10-16T11:00:59.940Z,20.48
2018-10-16T11:03:28.413Z,22.23
2018-10-16T11:05:56.589Z,18.40
2018-10-16T11:08:24.953Z,16.02
2018-10-16T11:10:53.210Z,16.47
2018-10-16T11:13:21.525Z,17.55
2018-10-16T11:15:49.793Z,16.10
2018-10-16T11:18:18.045Z,16.37
2018-10-16T11:20:46.301Z,16.80
2018-10-16T11:23:14.539Z,15.40
2018-10-16T11:25:42.796Z,13.88
2018-10-16T11:28:11.007Z,13.38
2018-10-16T11:30:39.246Z,15.75
2018-10-16T11:33:07.594Z,16.17
2018-10-16T11:35:35.952Z,19.27
2018-10-16T11:38:04.421Z,17.77
2018-10-16T11:40:32.756Z,14.18
2018-10-16T11:43:01.081Z,13.88
2018-10-16T11:45:29.299Z,14.13
2018-10-16T11:47:57.572Z,13.85
2018-10-16T11:50:25.825Z,17.20
2018-10-16T11:52:54.081Z,15.60
2018-10-16T11:55:22.317Z,20.35
2018-10-16T11:57:51.062Z,16.30
2018-10-16T12:00:19.361Z,14.65
2018-10-16T12:20:09.044Z,18.67
2018-10-16T12:22:37.278Z,22.65
2018-10-16T12:25:06.486Z,16.77
2018-10-16T12:27:34.700Z,14.35
2018-10-16T12:30:02.972Z,19.00
2018-10-16T12:32:32.886Z,15.87
2018-10-16T12:35:01.100Z,16.65
2018-10-16T12:37:29.350Z,16.90
2018-10-16T12:39:57.610Z,16.70
2018-10-16T12:42:26.034Z,15.48
2018-10-16T12:44:54.349Z,16.05
2018-10-16T12:47:22.550Z,18.82
2018-10-16T12:49:50.820Z,21.60
2018-10-16T12:52:19.131Z,17.27
2018-10-16T12:54:47.381Z,18.15
2018-10-16T12:57:15.966Z,21.90
2018-10-16T12:59:45.282Z,14.75
2018-10-16T13:02:14.021Z,14.95
2018-10-16T13:04:42.154Z,19.00
2018-10-16T13:07:15.820Z,19.97
2018-10-16T13:09:44.128Z,13.80
2018-10-16T13:12:12.344Z,15.83
2018-10-16T13:14:40.592Z,14.70
2018-10-16T13:17:08.804Z,14.23
2018-10-16T13:19:37.040Z,15.48
2018-10-16T13:22:05.464Z,15.90
2018-10-16T13:24:33.722Z,14.13
2018-10-16T13:27:02.311Z,18.57
2018-10-16T13:29:30.795Z,21.20
2018-10-16T13:31:59.021Z,14.87
2018-10-16T13:34:27.283Z,14.70
2018-10-16T13:36:55.654Z,21.25
2018-10-16T13:39:23.795Z,17.70
2018-10-16T13:41:52.088Z,16.82
2018-10-16T13:44:20.353Z,17.85
2018-10-16T13:46:48.568Z,15.43
2018-10-16T13:49:16.980Z,16.10
2018-10-16T13:51:45.259Z,14.98
2018-10-16T13:54:13.555Z,14.38
2018-10-16T13:56:42.175Z,18.32
2018-10-16T13:59:10.585Z,16.07
2018-10-16T14:01:38.865Z,12.85
2018-10-16T14:04:07.293Z,13.85
2018-10-16T14:06:35.413Z,13.30
2018-10-16T14:09:04.841Z,15.55
2018-10-16T14:11:33.885Z,15.95
2018-10-16T14:14:02.254Z,15.28
2018-10-16T14:16:30.593Z,21.13
2018-10-16T14:18:58.921Z,16.52
2018-10-16T14:21:27.347Z,17.95
2018-10-16T14:23:55.683Z,18.00
2018-10-16T14:26:23.921Z,13.40
2018-10-16T14:28:52.497Z,14.93
2018-10-16T14:31:20.744Z,16.73
2018-10-16T14:33:49.949Z,19.70
2018-10-16T14:36:18.061Z,52.75
2018-10-16T14:38:46.320Z,19.70
2018-10-16T14:41:14.637Z,23.55
2018-10-16T14:43:42.885Z,16.00
2018-10-16T14:46:11.175Z,16.62
2018-10-16T14:48:39.462Z,19.00
2018-10-16T14:51:07.785Z,23.05
2018-10-16T14:53:36.001Z,30.00
2018-10-16T14:56:04.723Z,36.05
2018-10-16T14:58:32.955Z,27.37
2018-10-16T15:18:17.313Z,43.53
2018-10-16T15:20:45.591Z,51.53
2018-10-16T15:23:14.039Z,39.60
2018-10-16T15:25:42.764Z,37.28
2018-10-16T15:28:11.487Z,33.23
2018-10-16T15:30:39.782Z,34.75
2018-10-16T15:33:08.115Z,32.50
2018-10-16T15:35:37.110Z,29.95
2018-10-16T15:38:08.399Z,28.35
2018-10-16T15:40:39.775Z,30.68
2018-10-16T15:43:11.944Z,37.28
2018-10-16T15:45:41.709Z,38.55
2018-10-16T15:48:10.165Z,40.90
2018-10-16T15:50:38.576Z,40.03
2018-10-16T15:53:08.032Z,43.05
2018-10-16T15:55:36.311Z,34.85
2018-10-16T15:58:05.447Z,33.40
2018-10-16T16:00:36.184Z,36.13
2018-10-16T16:03:04.434Z,47.60
2018-10-16T16:05:32.767Z,43.68
2018-10-16T16:08:01.022Z,35.95
2018-10-16T16:10:29.394Z,35.83
2018-10-16T16:12:58.467Z,37.85
2018-10-16T16:15:26.865Z,40.00
2018-10-16T16:17:55.308Z,40.58
2018-10-16T16:20:23.547Z,34.03
2018-10-16T16:22:51.922Z,40.67
2018-10-16T16:25:20.392Z,60.80
2018-10-16T16:27:48.819Z,48.87
2018-10-16T16:30:17.724Z,36.80
2018-10-16T16:32:46.319Z,39.40
2018-10-16T16:35:15.094Z,32.70
2018-10-16T16:37:44.041Z,39.33
2018-10-16T16:40:14.069Z,41.58
2018-10-16T16:42:42.506Z,43.68
2018-10-16T16:45:11.598Z,34.88
2018-10-16T16:47:39.846Z,31.65
2018-10-16T16:50:09.518Z,30.80
2018-10-16T16:52:37.822Z,30.65
2018-10-16T16:55:07.617Z,28.50
2018-10-16T16:57:35.932Z,28.52
2018-10-16T17:00:04.241Z,25.17
2018-10-16T17:02:32.595Z,33.90
2018-10-16T17:05:00.835Z,43.45
2018-10-16T17:07:29.350Z,34.18
2018-10-16T17:09:57.652Z,27.13
2018-10-16T17:12:25.902Z,28.75
2018-10-16T17:14:54.204Z,25.12
2018-10-16T17:17:22.479Z,29.70
2018-10-16T17:19:50.771Z,30.70
2018-10-16T17:23:48.458Z,24.52
2018-10-16T17:26:17.054Z,25.37
2018-10-16T17:28:45.429Z,22.95
2018-10-16T17:31:13.949Z,27.87
2018-10-16T17:33:42.230Z,27.55
2018-10-16T17:36:10.581Z,29.48
2018-10-16T17:38:38.890Z,28.05
2018-10-16T17:41:07.139Z,37.58
2018-10-16T17:43:35.396Z,25.10
2018-10-16T17:46:04.053Z,25.90
2018-10-16T17:48:32.326Z,27.30
2018-10-16T17:51:00.714Z,30.12
2018-10-16T17:53:28.979Z,28.17
2018-10-16T17:55:57.204Z,33.35
2018-10-16T17:58:25.453Z,28.83
2018-10-16T18:00:53.709Z,27.42
2018-10-16T18:03:22.171Z,29.55
2018-10-16T18:05:50.634Z,25.43
2018-10-16T18:08:19.049Z,30.45
2018-10-16T18:10:47.476Z,30.00
2018-10-16T18:13:15.880Z,29.05
2018-10-16T18:15:44.181Z,155.00
2018-10-16T18:18:12.541Z,144.50
2018-10-16T18:20:40.842Z,32.90
2018-10-16T18:23:09.234Z,34.92
2018-10-16T18:25:37.722Z,30.68
2018-10-16T18:28:06.142Z,30.15
2018-10-16T18:30:35.539Z,31.00
2018-10-16T18:33:03.850Z,29.67
2018-10-16T18:35:32.248Z,43.70
2018-10-16T18:38:00.583Z,32.17
2018-10-16T18:40:29.191Z,28.50
2018-10-16T18:42:57.455Z,31.35
2018-10-16T18:45:25.775Z,33.45
2018-10-16T18:47:54.136Z,33.80
2018-10-16T18:50:22.479Z,36.60
2018-10-16T18:52:50.852Z,33.75
2018-10-16T18:55:19.136Z,38.08
2018-10-16T18:57:47.470Z,38.05
2018-10-16T19:00:17.933Z,38.73
2018-10-16T19:02:46.956Z,32.88
2018-10-16T19:05:15.580Z,30.72
2018-10-16T19:07:43.951Z,28.87
2018-10-16T19:10:12.333Z,29.23
2018-10-16T19:12:41.523Z,34.85
2018-10-16T19:15:11.388Z,36.88
2018-10-16T19:17:39.831Z,63.68
2018-10-16T19:20:09.875Z,108.70
2018-10-16T19:22:38.290Z,62.75
2018-10-16T19:25:07.129Z,33.02
2018-10-16T19:27:35.440Z,29.48
2018-10-16T19:30:03.848Z,30.65
2018-10-16T19:32:32.306Z,30.85
2018-10-16T19:35:00.783Z,36.03
2018-10-16T19:37:29.075Z,34.33
2018-10-16T19:39:57.425Z,32.00
2018-10-16T19:42:25.668Z,43.63
2018-10-16T19:44:54.036Z,32.05
2018-10-16T19:47:22.434Z,34.92
2018-10-16T19:49:50.880Z,32.75
2018-10-16T19:52:19.941Z,28.75
2018-10-16T19:54:48.618Z,31.93
2018-10-16T19:57:17.069Z,28.80
2018-10-16T19:59:45.261Z,30.92
2018-10-16T20:02:13.688Z,26.68
2018-10-16T20:04:42.080Z,30.30
2018-10-16T20:07:10.367Z,28.20
2018-10-16T20:09:38.669Z,31.27
2018-10-16T20:12:07.004Z,29.00
2018-10-16T20:14:35.527Z,33.33
2018-10-16T20:17:03.896Z,31.15
2018-10-16T20:19:32.368Z,31.97
2018-10-16T20:22:00.593Z,31.02
2018-10-16T20:24:28.916Z,31.45
2018-10-16T20:26:57.184Z,38.15
2018-10-16T20:29:25.547Z,29.67
2018-10-16T20:31:53.971Z,29.20
2018-10-16T20:34:22.338Z,33.35
2018-10-16T20:36:51.405Z,35.38
2018-10-16T20:39:19.761Z,29.30
2018-10-16T20:41:48.074Z,31.20
2018-10-16T20:44:16.480Z,34.73
2018-10-16T20:46:44.771Z,38.08
2018-10-16T20:49:13.139Z,35.90
2018-10-16T20:51:41.343Z,32.38
2018-10-16T20:54:09.590Z,32.45
2018-10-16T20:56:37.831Z,33.45
2018-10-16T20:59:06.117Z,34.13
2018-10-16T21:01:34.379Z,33.48
2018-10-16T21:04:02.655Z,37.50
2018-10-16T21:06:31.179Z,36.00
2018-10-16T21:08:59.306Z,39.40
2018-10-16T21:11:27.547Z,36.70
2018-10-16T21:13:55.924Z,45.25
2018-10-16T21:16:24.211Z,36.37
2018-10-16T21:18:52.417Z,36.58
2018-10-16T21:21:20.765Z,34.55
2018-10-16T21:23:49.050Z,39.08
2018-10-16T21:26:17.269Z,36.05
2018-10-16T21:28:45.877Z,37.17
2018-10-16T21:31:14.279Z,33.73
2018-10-16T21:33:42.598Z,36.28
2018-10-16T21:36:10.812Z,32.23
2018-10-16T21:38:39.156Z,35.63
2018-10-16T21:41:07.515Z,32.23
2018-10-16T21:43:35.815Z,35.78
2018-10-16T21:46:04.119Z,32.10
2018-10-16T21:48:32.469Z,33.00
2018-10-16T21:51:00.704Z,35.63
2018-10-16T21:53:29.093Z,34.40
2018-10-16T21:55:57.479Z,32.35
2018-10-16T21:58:26.051Z,32.55
2018-10-16T22:00:59.837Z,33.33
2018-10-16T22:03:28.150Z,33.90
2018-10-16T22:05:56.391Z,31.68
2018-10-16T22:08:24.659Z,32.17
2018-10-16T22:10:52.930Z,33.25
2018-10-16T22:13:21.201Z,31.87
2018-10-16T22:15:49.424Z,34.53
2018-10-16T22:18:17.721Z,34.45
2018-10-16T22:20:45.977Z,30.82
2018-10-16T22:23:14.319Z,31.80
2018-10-16T22:25:42.550Z,32.93
2018-10-16T22:28:10.795Z,30.60
2018-10-16T22:30:39.066Z,33.37
2018-10-16T22:33:07.279Z,29.95
2018-10-16T22:35:35.590Z,30.10
2018-10-16T22:38:03.869Z,32.42
2018-10-16T22:40:32.176Z,31.50
2018-10-16T22:43:00.444Z,34.40
2018-10-16T22:45:28.654Z,30.62
2018-10-16T22:47:56.908Z,30.45
2018-10-16T22:50:25.194Z,31.87
2018-10-16T22:52:53.484Z,30.55
2018-10-16T22:55:21.746Z,31.68
2018-10-16T22:57:49.954Z,31.60
2018-10-16T23:00:19.233Z,30.70
2018-10-16T23:02:48.403Z,33.70
2018-10-16T23:05:16.695Z,32.40
2018-10-16T23:07:46.069Z,32.10
2018-10-16T23:10:14.844Z,30.55
2018-10-16T23:12:43.439Z,30.62
2018-10-16T23:15:12.165Z,31.87
2018-10-16T23:17:40.849Z,31.33
2018-10-16T23:20:10.101Z,30.77
2018-10-16T23:22:38.324Z,31.55
2018-10-16T23:25:06.678Z,32.53
2018-10-16T23:27:35.433Z,32.48
2018-10-16T23:30:03.770Z,33.67
2018-10-16T23:32:32.004Z,32.55
2018-10-16T23:35:00.262Z,32.90
2018-10-16T23:37:28.538Z,32.38
2018-10-16T23:39:56.778Z,34.67
2018-10-16T23:42:24.979Z,33.75
2018-10-16T23:44:53.247Z,31.40
2018-10-16T23:47:21.440Z,32.20
2018-10-16T23:49:49.714Z,33.98
2018-10-16T23:52:17.946Z,34.70
2018-10-16T23:54:46.172Z,33.15
2018-10-16T23:57:14.391Z,32.60
2018-10-16T23:59:42.607Z,34.20
